createdAt,value
2024-01-24T00:01:14.427Z,3.30
2024-01-24T00:03:41.945Z,3.30
2024-01-24T00:06:09.452Z,3.40
2024-01-24T00:08:36.599Z,3.40
2024-01-24T00:11:04.132Z,3.40
2024-01-24T00:13:31.264Z,3.40
2024-01-24T00:15:58.592Z,3.40
2024-01-24T00:18:25.889Z,3.40
2024-01-24T00:20:55.296Z,3.60
2024-01-24T00:23:25.434Z,3.40
2024-01-24T00:25:53.131Z,3.40
2024-01-24T00:28:23.120Z,3.40
2024-01-24T00:30:50.659Z,3.40
2024-01-24T00:33:18.170Z,3.40
2024-01-24T00:35:45.638Z,3.40
2024-01-24T00:38:12.657Z,3.40
2024-01-24T00:40:40.056Z,3.40
2024-01-24T00:43:07.123Z,3.40
2024-01-24T00:45:34.428Z,3.40
2024-01-24T00:48:01.781Z,3.40
2024-01-24T00:50:29.781Z,3.40
2024-01-24T00:52:56.969Z,3.40
2024-01-24T00:55:27.817Z,3.50
2024-01-24T00:57:56.179Z,3.40
2024-01-24T01:00:23.816Z,3.40
2024-01-24T01:02:51.051Z,3.40
2024-01-24T01:05:18.727Z,3.40
2024-01-24T01:07:45.789Z,3.50
2024-01-24T01:10:13.209Z,3.40
2024-01-24T01:12:40.301Z,3.50
2024-01-24T01:15:07.931Z,3.50
2024-01-24T01:17:35.076Z,3.50
2024-01-24T01:20:02.481Z,3.50
2024-01-24T01:22:29.638Z,3.50
2024-01-24T01:24:59.420Z,3.50
2024-01-24T01:27:27.376Z,3.50
2024-01-24T01:29:54.800Z,3.50
2024-01-24T01:32:22.068Z,3.60
2024-01-24T01:34:49.423Z,3.60
2024-01-24T01:37:16.637Z,3.60
2024-01-24T01:39:44.107Z,3.60
2024-01-24T01:42:11.248Z,3.60
2024-01-24T01:44:45.777Z,3.70
2024-01-24T01:47:14.428Z,3.70
2024-01-24T01:49:44.382Z,4.20
2024-01-24T01:52:12.090Z,3.70
2024-01-24T01:54:41.388Z,3.80
2024-01-24T01:57:11.864Z,3.70
2024-01-24T01:59:42.995Z,3.70
2024-01-24T02:02:12.095Z,3.80
2024-01-24T02:04:39.457Z,3.80
2024-01-24T02:07:06.786Z,3.80
2024-01-24T02:09:35.631Z,3.80
2024-01-24T02:12:02.760Z,3.80
2024-01-24T02:14:30.052Z,3.80
2024-01-24T02:16:57.184Z,3.80
2024-01-24T02:19:24.854Z,3.80
2024-01-24T02:21:52.574Z,3.80
2024-01-24T02:24:20.098Z,3.90
2024-01-24T02:26:47.199Z,3.70
2024-01-24T02:29:14.969Z,3.70
2024-01-24T02:31:42.048Z,3.70
2024-01-24T02:34:09.511Z,3.60
2024-01-24T02:36:36.726Z,3.60
2024-01-24T02:39:04.915Z,3.70
2024-01-24T02:41:34.838Z,3.60
2024-01-24T02:44:02.198Z,3.60
2024-01-24T02:46:29.311Z,3.60
2024-01-24T02:48:56.953Z,3.50
2024-01-24T02:51:25.476Z,3.60
2024-01-24T02:53:53.548Z,3.50
2024-01-24T02:56:21.147Z,3.50
2024-01-24T02:58:48.725Z,3.40
2024-01-24T03:01:17.428Z,3.40
2024-01-24T03:03:45.375Z,3.40
2024-01-24T03:06:12.833Z,3.40
2024-01-24T03:09:00.245Z,3.30
2024-01-24T03:11:27.508Z,3.30
2024-01-24T03:13:55.046Z,3.30
2024-01-24T03:16:22.147Z,3.20
2024-01-24T03:18:50.133Z,3.20
2024-01-24T03:21:19.127Z,3.10
2024-01-24T03:23:46.619Z,3.10
2024-01-24T03:26:15.456Z,3.10
2024-01-24T03:28:43.878Z,3.10
2024-01-24T03:31:11.091Z,3.00
2024-01-24T03:33:38.559Z,3.00
2024-01-24T03:36:06.067Z,2.90
2024-01-24T03:38:34.331Z,3.00
2024-01-24T03:41:01.892Z,2.90
2024-01-24T03:43:29.331Z,2.90
2024-01-24T03:45:56.575Z,3.00
2024-01-24T03:48:24.040Z,3.00
2024-01-24T03:50:51.226Z,2.90
2024-01-24T03:53:18.529Z,3.00
2024-01-24T03:55:45.748Z,2.90
2024-01-24T03:58:13.120Z,3.00
2024-01-24T04:00:40.436Z,2.90
2024-01-24T04:03:07.776Z,3.60
2024-01-24T04:05:34.996Z,3.00
2024-01-24T04:08:02.698Z,3.00
2024-01-24T04:10:29.829Z,3.00
2024-01-24T04:12:57.210Z,3.00
2024-01-24T04:15:24.309Z,3.10
2024-01-24T04:17:51.795Z,3.00
2024-01-24T04:20:18.909Z,3.00
2024-01-24T04:22:46.330Z,3.00
2024-01-24T04:25:13.683Z,3.10
2024-01-24T04:27:41.212Z,3.00
2024-01-24T04:30:08.888Z,3.20
2024-01-24T04:32:36.490Z,3.20
2024-01-24T04:35:04.058Z,3.20
2024-01-24T04:37:31.413Z,3.20
2024-01-24T04:39:58.601Z,3.30
2024-01-24T04:42:26.100Z,3.80
2024-01-24T04:44:53.778Z,3.30
2024-01-24T04:47:22.535Z,3.40
2024-01-24T04:49:49.775Z,3.40
2024-01-24T04:52:17.323Z,3.40
2024-01-24T04:54:44.564Z,3.50
2024-01-24T04:57:12.064Z,3.60
2024-01-24T04:59:49.174Z,3.50
2024-01-24T05:02:21.422Z,3.60
2024-01-24T05:04:49.154Z,3.60
2024-01-24T05:07:17.146Z,3.60
2024-01-24T05:09:44.554Z,3.60
2024-01-24T05:12:12.212Z,3.70
2024-01-24T05:14:39.328Z,3.60
2024-01-24T05:17:07.480Z,3.60
2024-01-24T05:19:34.713Z,3.60
2024-01-24T05:22:02.270Z,3.60
2024-01-24T05:24:29.460Z,3.60
2024-01-24T05:26:56.902Z,3.60
2024-01-24T05:29:24.016Z,3.60
2024-01-24T05:31:51.334Z,3.60
2024-01-24T05:34:18.693Z,3.60
2024-01-24T05:36:46.119Z,3.80
2024-01-24T05:39:15.126Z,3.60
2024-01-24T05:41:42.583Z,3.60
2024-01-24T05:44:09.691Z,3.60
2024-01-24T05:46:37.159Z,3.60
2024-01-24T05:49:04.557Z,3.50
2024-01-24T05:51:32.037Z,3.60
2024-01-24T05:53:59.709Z,3.60
2024-01-24T05:56:27.094Z,3.60
2024-01-24T05:58:54.667Z,3.60
2024-01-24T06:01:22.984Z,3.60
2024-01-24T06:03:50.480Z,3.70
2024-01-24T06:06:18.114Z,3.60
2024-01-24T06:08:45.449Z,3.60
2024-01-24T06:11:15.570Z,3.60
2024-01-24T06:13:42.981Z,3.70
2024-01-24T06:16:11.354Z,3.70
2024-01-24T06:18:38.576Z,3.70
2024-01-24T06:21:06.038Z,3.70
2024-01-24T06:23:33.195Z,3.80
2024-01-24T06:26:00.530Z,3.70
2024-01-24T06:28:27.699Z,4.20
2024-01-24T06:30:55.157Z,3.70
2024-01-24T06:33:22.855Z,3.80
2024-01-24T06:35:50.432Z,4.00
2024-01-24T06:38:17.666Z,3.80
2024-01-24T06:40:45.384Z,4.20
2024-01-24T06:43:15.749Z,3.90
2024-01-24T06:45:43.261Z,3.80
2024-01-24T06:48:10.498Z,4.90
2024-01-24T06:50:37.961Z,3.60
2024-01-24T06:53:07.065Z,3.50
2024-01-24T06:55:34.427Z,3.40
2024-01-24T06:58:01.933Z,3.20
2024-01-24T07:00:31.272Z,3.00
2024-01-24T07:02:58.489Z,2.80
2024-01-24T07:05:25.997Z,2.70
2024-01-24T07:07:53.118Z,2.60
2024-01-24T07:10:20.463Z,2.40
2024-01-24T07:12:48.213Z,2.30
2024-01-24T07:15:17.486Z,2.20
2024-01-24T07:17:45.744Z,2.10
2024-01-24T07:20:14.203Z,2.00
2024-01-24T07:22:41.359Z,1.90
2024-01-24T07:25:09.244Z,1.90
2024-01-24T07:27:36.909Z,1.80
2024-01-24T07:30:05.345Z,1.70
2024-01-24T07:32:33.048Z,1.70
2024-01-24T07:35:00.951Z,1.70
2024-01-24T07:37:28.536Z,1.60
2024-01-24T07:40:15.940Z,1.60
2024-01-24T07:42:43.957Z,1.60
2024-01-24T07:45:11.232Z,1.70
2024-01-24T07:47:39.782Z,1.70
2024-01-24T07:50:08.288Z,1.60
2024-01-24T07:52:41.024Z,1.70
2024-01-24T07:55:11.674Z,1.70
2024-01-24T07:57:39.795Z,1.60
2024-01-24T08:00:07.737Z,1.60
2024-01-24T08:02:35.829Z,1.60
2024-01-24T08:05:03.390Z,1.60
2024-01-24T08:07:34.443Z,1.60
2024-01-24T08:10:02.171Z,1.60
2024-01-24T08:12:29.781Z,1.60
2024-01-24T08:14:57.366Z,1.80
2024-01-24T08:17:24.770Z,1.60
2024-01-24T08:19:52.504Z,1.60
2024-01-24T08:22:20.499Z,1.70
2024-01-24T08:24:47.676Z,1.70
2024-01-24T08:27:15.481Z,1.80
2024-01-24T08:29:42.663Z,1.90
2024-01-24T08:32:10.261Z,1.80
2024-01-24T08:34:38.129Z,1.80
2024-01-24T08:37:06.667Z,1.80
2024-01-24T08:39:34.649Z,1.80
2024-01-24T08:42:05.892Z,1.80
2024-01-24T08:44:33.179Z,1.80
2024-01-24T08:47:00.605Z,1.80
2024-01-24T08:49:27.993Z,1.80
2024-01-24T08:51:56.975Z,1.80
2024-01-24T08:54:24.529Z,1.80
2024-01-24T08:56:52.623Z,3.20
2024-01-24T08:59:20.537Z,1.80
2024-01-24T09:01:48.145Z,1.80
2024-01-24T09:04:16.505Z,1.90
2024-01-24T09:06:44.303Z,1.90
2024-01-24T09:09:15.163Z,1.90
2024-01-24T09:11:50.422Z,1.90
2024-01-24T09:14:24.121Z,1.90
2024-01-24T09:16:51.672Z,1.90
2024-01-24T09:19:19.138Z,1.90
2024-01-24T09:21:46.815Z,2.00
2024-01-24T09:24:14.002Z,2.00
2024-01-24T09:26:41.531Z,2.00
2024-01-24T09:29:13.208Z,2.00
2024-01-24T09:31:46.761Z,2.00
2024-01-24T09:34:14.409Z,2.10
2024-01-24T09:36:42.349Z,2.10
2024-01-24T09:39:10.520Z,2.10
2024-01-24T09:41:41.883Z,2.20
2024-01-24T09:44:09.665Z,2.20
2024-01-24T09:46:43.494Z,2.20
2024-01-24T09:49:16.201Z,2.30
2024-01-24T09:51:44.960Z,2.30
2024-01-24T09:54:13.611Z,2.30
2024-01-24T09:56:41.567Z,2.40
2024-01-24T09:59:09.862Z,2.50
2024-01-24T10:01:39.423Z,2.50
2024-01-24T10:04:08.235Z,2.50
2024-01-24T10:06:40.662Z,2.60
2024-01-24T10:09:09.127Z,2.60
2024-01-24T10:11:36.796Z,2.70
2024-01-24T10:14:03.932Z,2.80
2024-01-24T10:16:31.508Z,2.80
2024-01-24T10:18:58.835Z,2.90
2024-01-24T10:21:27.758Z,2.90
2024-01-24T10:23:56.486Z,3.00
2024-01-24T10:26:24.788Z,3.10
2024-01-24T10:28:55.093Z,3.10
2024-01-24T10:31:25.658Z,3.20
2024-01-24T10:33:57.311Z,3.20
2024-01-24T10:36:28.303Z,3.30
2024-01-24T10:39:01.948Z,3.30
2024-01-24T10:41:32.111Z,3.70
2024-01-24T10:44:08.359Z,3.40
2024-01-24T10:46:40.279Z,3.50
2024-01-24T10:49:10.950Z,3.50
2024-01-24T10:51:39.678Z,3.60
2024-01-24T10:54:09.010Z,3.60
2024-01-24T10:56:38.677Z,3.70
2024-01-24T10:59:07.165Z,3.80
2024-01-24T11:01:36.127Z,3.80
2024-01-24T11:04:07.660Z,3.90
2024-01-24T11:06:44.842Z,3.90
2024-01-24T11:09:34.358Z,3.90
2024-01-24T11:12:02.409Z,3.90
2024-01-24T11:14:34.423Z,3.90
2024-01-24T11:17:03.801Z,4.00
2024-01-24T11:19:32.092Z,4.20
2024-01-24T11:22:13.037Z,4.00
2024-01-24T11:24:47.645Z,4.10
2024-01-24T11:27:37.313Z,4.10
2024-01-24T11:30:19.148Z,4.20
2024-01-24T11:32:48.523Z,4.20
2024-01-24T11:35:39.178Z,4.20
2024-01-24T11:38:29.948Z,4.30
2024-01-24T11:41:22.022Z,4.30
2024-01-24T11:43:49.723Z,4.30
2024-01-24T11:46:19.445Z,4.30
2024-01-24T11:48:47.017Z,4.30
2024-01-24T11:51:16.104Z,4.40
2024-01-24T11:53:45.007Z,4.40
2024-01-24T11:56:15.804Z,4.80
2024-01-24T11:58:43.581Z,4.40
2024-01-24T12:01:12.261Z,4.60
2024-01-24T12:03:50.781Z,4.50
2024-01-24T12:06:19.033Z,4.60
2024-01-24T12:08:50.094Z,4.60
2024-01-24T12:11:19.373Z,4.60
2024-01-24T12:13:47.307Z,4.70
2024-01-24T12:16:14.437Z,4.80
2024-01-24T12:18:42.581Z,4.80
2024-01-24T12:21:10.857Z,4.80
2024-01-24T12:23:39.487Z,4.90
2024-01-24T12:26:07.223Z,4.90
2024-01-24T12:28:35.004Z,5.00
2024-01-24T12:31:05.169Z,4.90
2024-01-24T12:33:35.907Z,5.00
2024-01-24T12:36:06.194Z,5.00
2024-01-24T12:38:39.383Z,5.10
2024-01-24T12:41:06.853Z,5.10
2024-01-24T12:43:34.642Z,5.20
2024-01-24T12:46:09.211Z,5.20
2024-01-24T12:48:38.518Z,5.30
2024-01-24T12:51:07.376Z,5.30
2024-01-24T12:53:34.890Z,5.50
2024-01-24T12:56:02.472Z,5.50
2024-01-24T12:58:29.991Z,5.50
2024-01-24T13:00:57.409Z,5.50
2024-01-24T13:03:27.488Z,5.70
2024-01-24T13:05:56.961Z,5.60
2024-01-24T13:08:25.033Z,5.60
2024-01-24T13:10:53.586Z,5.70
2024-01-24T13:13:21.596Z,5.70
2024-01-24T13:15:53.597Z,5.70
2024-01-24T13:18:21.226Z,5.70
2024-01-24T13:20:48.427Z,5.70
2024-01-24T13:23:17.032Z,5.70
2024-01-24T13:25:44.127Z,5.70
2024-01-24T13:28:13.603Z,5.80
2024-01-24T13:30:41.807Z,5.70
2024-01-24T13:33:11.002Z,5.80
2024-01-24T13:35:38.308Z,6.00
2024-01-24T13:38:05.786Z,5.80
2024-01-24T13:40:32.914Z,6.80
2024-01-24T13:43:00.417Z,6.00
2024-01-24T13:45:27.591Z,5.90
2024-01-24T13:47:55.384Z,5.90
2024-01-24T13:50:22.667Z,5.90
2024-01-24T13:52:50.066Z,5.90
2024-01-24T13:55:18.543Z,6.00
2024-01-24T13:57:46.183Z,6.00
2024-01-24T14:00:15.426Z,6.00
2024-01-24T14:02:43.496Z,6.00
2024-01-24T14:05:12.017Z,6.90
2024-01-24T14:07:43.853Z,6.10
2024-01-24T14:10:12.374Z,6.80
2024-01-24T14:12:40.335Z,6.20
2024-01-24T14:15:15.495Z,6.90
2024-01-24T14:17:51.477Z,6.20
2024-01-24T14:20:19.300Z,6.20
2024-01-24T14:22:46.839Z,6.30
2024-01-24T14:25:14.094Z,6.30
2024-01-24T14:27:42.332Z,6.30
2024-01-24T14:30:12.105Z,6.30
2024-01-24T14:32:39.742Z,6.30
2024-01-24T14:35:07.832Z,6.30
2024-01-24T14:37:36.090Z,6.30
2024-01-24T14:40:04.145Z,6.30
2024-01-24T14:42:32.111Z,6.30
2024-01-24T14:45:00.044Z,6.30
2024-01-24T14:47:27.774Z,6.30
2024-01-24T14:49:55.046Z,6.30
2024-01-24T14:52:22.454Z,6.30
2024-01-24T14:54:49.713Z,6.30
2024-01-24T14:57:17.066Z,6.40
2024-01-24T14:59:44.166Z,6.60
2024-01-24T15:02:11.610Z,6.30
2024-01-24T15:04:38.785Z,6.30
2024-01-24T15:07:06.317Z,6.30
2024-01-24T15:09:34.975Z,6.30
2024-01-24T15:12:03.432Z,6.30
2024-01-24T15:14:30.766Z,6.80
2024-01-24T15:16:58.689Z,6.30
2024-01-24T15:19:26.251Z,7.60
2024-01-24T15:21:54.518Z,6.30
2024-01-24T15:24:22.669Z,6.30
2024-01-24T15:26:50.586Z,6.30
2024-01-24T15:29:17.856Z,6.30
2024-01-24T15:31:45.396Z,6.30
2024-01-24T15:34:15.565Z,6.30
2024-01-24T15:36:44.543Z,6.30
2024-01-24T15:39:14.134Z,6.30
2024-01-24T15:41:43.050Z,7.20
2024-01-24T15:44:10.301Z,6.20
2024-01-24T15:46:37.788Z,6.20
2024-01-24T15:49:05.418Z,6.20
2024-01-24T15:51:33.135Z,6.20
2024-01-24T15:54:00.338Z,6.20
2024-01-24T15:56:28.400Z,6.20
2024-01-24T15:58:57.814Z,6.20
2024-01-24T16:01:25.725Z,6.20
2024-01-24T16:03:54.760Z,6.20
2024-01-24T16:06:24.097Z,6.20
2024-01-24T16:08:51.981Z,6.20
2024-01-24T16:11:19.985Z,6.20
2024-01-24T16:13:47.375Z,6.40
2024-01-24T16:16:16.905Z,6.10
2024-01-24T16:18:44.756Z,6.10
2024-01-24T16:21:12.218Z,6.10
2024-01-24T16:23:39.387Z,6.10
2024-01-24T16:26:06.750Z,6.10
2024-01-24T16:28:34.038Z,7.00
2024-01-24T16:31:01.417Z,6.20
2024-01-24T16:33:28.725Z,6.20
2024-01-24T16:35:56.312Z,6.20
2024-01-24T16:38:23.602Z,6.10
2024-01-24T16:40:52.507Z,6.10
2024-01-24T16:43:19.866Z,6.40
2024-01-24T16:45:47.680Z,6.10
2024-01-24T16:48:14.894Z,6.20
2024-01-24T16:50:42.377Z,6.10
2024-01-24T16:53:10.907Z,6.10
2024-01-24T16:55:38.559Z,6.10
2024-01-24T16:58:05.679Z,6.10
2024-01-24T17:00:34.271Z,6.10
2024-01-24T17:03:01.522Z,6.10
2024-01-24T17:05:29.191Z,6.00
2024-01-24T17:07:56.295Z,6.00
2024-01-24T17:10:23.593Z,6.00
2024-01-24T17:12:53.664Z,6.00
2024-01-24T17:15:21.308Z,6.00
2024-01-24T17:17:48.678Z,6.00
2024-01-24T17:20:16.091Z,6.00
2024-01-24T17:22:43.383Z,6.00
2024-01-24T17:25:11.816Z,6.00
2024-01-24T17:27:40.270Z,6.00
2024-01-24T17:30:08.601Z,6.00
2024-01-24T17:32:35.807Z,6.00
2024-01-24T17:35:03.709Z,6.00
2024-01-24T17:37:30.891Z,6.00
2024-01-24T17:39:58.506Z,6.00
2024-01-24T17:42:26.956Z,6.00
2024-01-24T17:44:54.614Z,6.00
2024-01-24T17:47:21.863Z,6.10
2024-01-24T17:49:49.472Z,6.00
2024-01-24T17:52:17.450Z,6.00
2024-01-24T17:54:45.007Z,6.10
2024-01-24T17:57:12.279Z,6.10
2024-01-24T17:59:40.610Z,6.10
2024-01-24T18:02:07.698Z,6.20
2024-01-24T18:04:35.279Z,6.10
2024-01-24T18:07:02.737Z,6.10
2024-01-24T18:09:30.192Z,6.10
2024-01-24T18:11:57.323Z,6.10
2024-01-24T18:14:25.188Z,6.20
2024-01-24T18:16:52.329Z,6.20
2024-01-24T18:19:19.830Z,6.30
2024-01-24T18:21:47.273Z,6.20
2024-01-24T18:24:14.706Z,6.20
2024-01-24T18:26:42.434Z,6.20
2024-01-24T18:29:09.877Z,6.10
2024-01-24T18:31:38.226Z,6.10
2024-01-24T18:34:05.840Z,6.10
2024-01-24T18:36:33.042Z,6.00
2024-01-24T18:39:00.586Z,6.00
2024-01-24T18:41:27.726Z,6.80
2024-01-24T18:43:55.588Z,6.00
2024-01-24T18:46:22.936Z,6.10
2024-01-24T18:48:50.643Z,6.80
2024-01-24T18:51:19.451Z,7.30
2024-01-24T18:53:46.857Z,6.00
2024-01-24T18:56:15.954Z,6.00
2024-01-24T18:58:43.449Z,6.10
2024-01-24T19:01:10.794Z,6.10
2024-01-24T19:03:38.640Z,7.10
2024-01-24T19:06:06.571Z,6.70
2024-01-24T19:08:37.520Z,6.10
2024-01-24T19:11:05.177Z,6.00
2024-01-24T19:13:34.735Z,6.00
2024-01-24T19:16:02.223Z,6.10
2024-01-24T19:18:30.371Z,6.00
2024-01-24T19:20:57.920Z,6.20
2024-01-24T19:23:25.376Z,7.50
2024-01-24T19:25:52.620Z,6.10
2024-01-24T19:28:20.595Z,6.00
2024-01-24T19:30:47.848Z,6.00
2024-01-24T19:33:15.337Z,6.10
2024-01-24T19:35:42.718Z,6.00
2024-01-24T19:38:11.178Z,6.10
2024-01-24T19:40:38.569Z,6.10
2024-01-24T19:43:06.115Z,6.10
2024-01-24T19:45:33.843Z,6.10
2024-01-24T19:48:01.614Z,6.10
2024-01-24T19:50:28.828Z,6.00
2024-01-24T19:52:56.780Z,6.10
2024-01-24T19:55:25.024Z,6.10
2024-01-24T19:57:52.757Z,6.10
2024-01-24T20:00:20.243Z,6.20
2024-01-24T20:02:47.777Z,6.10
2024-01-24T20:05:15.201Z,6.10
2024-01-24T20:07:44.632Z,6.10
2024-01-24T20:10:12.410Z,6.20
2024-01-24T20:12:40.080Z,6.20
2024-01-24T20:15:07.930Z,6.30
2024-01-24T20:17:35.402Z,6.20
2024-01-24T20:20:02.884Z,6.20
2024-01-24T20:22:30.482Z,6.20
2024-01-24T20:24:57.669Z,6.20
2024-01-24T20:27:25.161Z,6.20
2024-01-24T20:29:53.038Z,7.10
2024-01-24T20:32:21.057Z,6.20
2024-01-24T20:34:49.669Z,6.30
2024-01-24T20:37:19.423Z,6.20
2024-01-24T20:39:46.559Z,6.20
2024-01-24T20:42:14.691Z,6.20
2024-01-24T20:44:42.246Z,6.60
2024-01-24T20:47:15.103Z,7.50
2024-01-24T20:49:43.617Z,6.20
2024-01-24T20:52:11.449Z,6.20
2024-01-24T20:54:38.634Z,7.00
2024-01-24T20:57:08.699Z,7.10
2024-01-24T20:59:39.121Z,6.10
2024-01-24T21:02:07.448Z,6.10
2024-01-24T21:04:34.932Z,6.90
2024-01-24T21:07:02.746Z,6.70
2024-01-24T21:09:29.943Z,6.10
2024-01-24T21:11:57.875Z,6.10
2024-01-24T21:14:25.156Z,6.10
2024-01-24T21:16:53.017Z,6.00
2024-01-24T21:19:24.910Z,6.00
2024-01-24T21:21:55.912Z,6.00
2024-01-24T21:24:23.070Z,6.00
2024-01-24T21:26:51.293Z,6.00
2024-01-24T21:29:18.637Z,6.10
2024-01-24T21:31:47.101Z,6.50
2024-01-24T21:34:15.698Z,6.00
2024-01-24T21:36:47.902Z,6.20
2024-01-24T21:39:26.058Z,6.00
2024-01-24T21:41:53.433Z,6.00
2024-01-24T21:44:20.674Z,6.00
2024-01-24T21:46:48.276Z,6.30
2024-01-24T21:49:15.520Z,6.60
2024-01-24T21:51:43.025Z,6.00
2024-01-24T21:54:10.257Z,6.00
2024-01-24T21:56:37.713Z,6.00
2024-01-24T21:59:04.841Z,6.20
2024-01-24T22:01:35.357Z,6.10
2024-01-24T22:04:03.540Z,6.10
2024-01-24T22:06:31.366Z,6.10
2024-01-24T22:08:59.402Z,6.40
2024-01-24T22:11:27.697Z,6.10
2024-01-24T22:13:54.796Z,6.10
2024-01-24T22:16:22.404Z,6.10
2024-01-24T22:18:51.035Z,6.20
2024-01-24T22:21:21.083Z,6.10
2024-01-24T22:23:48.267Z,6.10
2024-01-24T22:26:16.384Z,6.20
2024-01-24T22:28:43.445Z,6.20
2024-01-24T22:31:10.883Z,6.20
2024-01-24T22:33:38.225Z,6.20
2024-01-24T22:36:06.166Z,6.20
2024-01-24T22:38:33.317Z,6.20
2024-01-24T22:41:01.399Z,6.10
2024-01-24T22:43:28.529Z,6.10
2024-01-24T22:45:55.882Z,6.10
2024-01-24T22:48:23.094Z,6.20
2024-01-24T22:50:50.626Z,6.10
2024-01-24T22:53:18.293Z,6.10
2024-01-24T22:55:45.683Z,6.20
2024-01-24T22:58:12.863Z,6.20
2024-01-24T23:00:40.428Z,6.20
2024-01-24T23:03:07.864Z,6.30
2024-01-24T23:05:35.484Z,6.30
2024-01-24T23:08:03.114Z,6.30
2024-01-24T23:10:31.000Z,6.30
2024-01-24T23:12:58.150Z,6.20
2024-01-24T23:15:25.764Z,6.20
2024-01-24T23:17:53.200Z,6.20
2024-01-24T23:20:20.753Z,6.20
2024-01-24T23:22:48.045Z,6.10
2024-01-24T23:25:15.557Z,6.10
2024-01-24T23:27:42.807Z,6.10
2024-01-24T23:30:10.784Z,6.00
2024-01-24T23:32:37.918Z,6.00
2024-01-24T23:35:05.618Z,6.00
2024-01-24T23:37:33.040Z,6.00
2024-01-24T23:40:00.740Z,6.00
2024-01-24T23:42:28.038Z,6.00
2024-01-24T23:44:55.450Z,6.50
2024-01-24T23:47:22.497Z,5.90
2024-01-24T23:49:50.132Z,5.90
2024-01-24T23:52:18.538Z,5.90
2024-01-24T23:54:46.818Z,5.90
2024-01-24T23:57:14.269Z,5.80
2024-01-24T23:59:44.626Z,5.80
